Leadville, CO

10:32 AM MDT op 04 september 2015 (GMT -0600)
Lake County | | Change Station
CLOSE
Current Station
Luchthaven
Location: Leadville,
Geometrische hoogte: 9928 ft
Nabije weerstations

Hoogte 9928 ft 39.23 °N, 106.32 °W | Updated 39 minutes ago

Gedeeltelijk bewolkt
Gedeeltelijk bewolkt
50 °F
Voelt als 50 °F
N
0
Wind Variabel Wind van noord

Vandaag
Hoog -- | Laag -- °F
--% Kans op neerslag
Gisteren
Hoog -- | Laag -- °F
Precip. -- inches
6:36 AM 7:31 PM
Afnemende maan, 58% visible
Druk 29.98 inches
Zicht 10.0 mijlen
Wolken Merendeels bewolkt 9000 ft
Dauwpunt 40 °F
Vochtigheid 68%
Neerslag 0.00 inches
Dikte sneeuw Niet beschikbaar.
UV 3 van de 12
Pollen 10.10 van de 12
Luchtkwaliteit Niet beschikbaar.
Flu Activity Niet beschikbaar.
METAR KLXV 041553Z AUTO 00000KT 10SM BKN090 10/04 A3036 RMK AO2 SLP150 T01000044
Druk 29.98 inches
Zicht 10.0 mijlen
Wolken Merendeels bewolkt 9000 ft
Dauwpunt 40 °F
Vochtigheid 68%
Neerslag 0.00 inches
Dikte sneeuw Niet beschikbaar.
UV 3 van de 12
Pollen 10.10 van de 12
Luchtkwaliteit Niet beschikbaar.
Flu Activity Niet beschikbaar.
METAR KLXV 041553Z AUTO 00000KT 10SM BKN090 10/04 A3036 RMK AO2 SLP150 T01000044

10-Day Weather Forecast

×

Almanac

Astronomie

Sep. 04, 2015 Opkomst Ondergang
Werkelijke tijd
Burgerlijke schemering
Nautische schemering
Astronomische schemering
Maan
Golflengte van het zichtbare licht
Daglengte
Tomorrow will be .
, % of the Moon is Illuminated

Extremen vandaag

State Highs State Lows

Community

WunderPhotos

Upload Photos

1,852,220 foto’s ge-upload!

WunderBlogs® & News

Nearby

Luchtkwaliteit

  Luchtkwaliteit LK-index Verontreinigende stof
Not available.

Dikte sneeuw

Station Depth Geometrische hoogte

Aardbevingen

Stad Distance Mag. Time & Date
Minimum magnitude displayed is 2.5.

Watertemperatuur langs de kust

Plaats Temperatuur

Stations

Nabije weerstations

Locatie station Temp. Gevoelstemperatuur Dauwpunt Vochtigheid Wind Precip. Hoogte Geactualiseerd Type